createdAt,value
2022-08-26T00:02:12.795Z,101032.80
2022-08-26T00:04:41.279Z,101027.40
2022-08-26T00:07:09.349Z,101026.20
2022-08-26T00:09:40.097Z,101025.20
2022-08-26T00:12:12.377Z,101023.80
2022-08-26T00:14:41.256Z,101020.60
2022-08-26T00:17:10.379Z,101017.80
2022-08-26T00:19:38.973Z,101023.60
2022-08-26T00:22:07.045Z,101020.60
2022-08-26T00:24:34.981Z,101021.80
2022-08-26T00:27:04.465Z,101020.40
2022-08-26T00:29:37.664Z,101015.20
2022-08-26T00:32:06.675Z,101014.40
2022-08-26T00:34:36.174Z,101016.00
2022-08-26T00:37:08.972Z,101011.60
2022-08-26T00:39:37.893Z,101010.60
2022-08-26T00:42:05.978Z,101013.60
2022-08-26T00:44:33.839Z,101010.60
2022-08-26T00:47:08.108Z,101011.60
2022-08-26T00:49:44.496Z,101014.60
2022-08-26T00:52:20.171Z,101009.80
2022-08-26T00:55:38.194Z,101015.20
2022-08-26T00:58:08.549Z,101016.00
2022-08-26T01:00:36.456Z,101020.20
2022-08-26T01:03:05.223Z,101014.00
2022-08-26T01:05:33.384Z,101014.80
2022-08-26T01:08:01.853Z,101012.20
2022-08-26T01:10:31.962Z,101012.60
2022-08-26T01:13:07.118Z,101004.20
2022-08-26T01:15:43.621Z,101010.40
2022-08-26T01:18:14.883Z,101005.80
2022-08-26T01:21:36.561Z,101007.60
2022-08-26T01:24:11.583Z,100999.00
2022-08-26T01:26:44.840Z,100999.00
2022-08-26T01:29:20.100Z,101004.00
2022-08-26T01:31:56.750Z,101000.40
2022-08-26T01:34:31.156Z,100998.20
2022-08-26T01:37:15.592Z,100994.00
2022-08-26T01:39:51.691Z,100999.20
2022-08-26T01:42:23.939Z,100997.40
2022-08-26T01:45:12.842Z,100995.00
2022-08-26T01:47:43.384Z,100993.60
2022-08-26T01:50:28.137Z,100995.80
2022-08-26T01:53:07.598Z,100997.60
2022-08-26T01:55:43.084Z,100994.00
2022-08-26T01:58:21.038Z,100993.00
2022-08-26T02:00:50.492Z,100992.60
2022-08-26T02:03:22.399Z,100994.00
2022-08-26T02:06:04.122Z,100995.80
2022-08-26T02:08:37.328Z,100996.60
2022-08-26T02:11:05.696Z,100991.60
2022-08-26T02:13:39.984Z,100987.80
2022-08-26T02:16:11.232Z,100985.00
2022-08-26T02:18:43.666Z,100986.40
2022-08-26T02:21:13.753Z,100982.60
2022-08-26T02:23:41.761Z,100979.40
2022-08-26T02:26:19.305Z,100981.20
2022-08-26T02:29:02.389Z,100982.00
2022-08-26T02:31:30.683Z,100981.80
2022-08-26T02:34:21.121Z,100982.60
2022-08-26T02:36:49.790Z,100978.80
2022-08-26T02:39:22.361Z,100972.00
2022-08-26T02:41:50.627Z,100973.00
2022-08-26T02:44:19.593Z,100971.20
2022-08-26T02:46:47.641Z,100973.60
2022-08-26T02:49:17.167Z,100969.60
2022-08-26T02:51:46.885Z,100969.60
2022-08-26T02:54:15.599Z,100968.80
2022-08-26T02:56:44.967Z,100966.00
2022-08-26T02:59:13.166Z,100963.00
2022-08-26T03:01:41.617Z,100966.40
2022-08-26T03:04:12.532Z,100961.80
2022-08-26T03:06:40.680Z,100956.80
2022-08-26T03:09:18.489Z,100958.00
2022-08-26T03:11:47.658Z,100959.00
2022-08-26T03:14:15.567Z,100958.80
2022-08-26T03:16:43.818Z,100954.20
2022-08-26T03:19:17.637Z,100951.80
2022-08-26T03:21:47.241Z,100950.00
2022-08-26T03:24:17.656Z,100953.20
2022-08-26T03:26:52.963Z,100950.20
2022-08-26T03:29:41.917Z,100950.80
2022-08-26T03:32:10.648Z,100950.80
2022-08-26T03:34:38.967Z,100945.40
2022-08-26T03:37:09.401Z,100949.40
2022-08-26T03:39:37.640Z,100944.40
2022-08-26T03:42:06.431Z,100942.40
2022-08-26T03:44:34.957Z,100941.60
2022-08-26T03:47:02.883Z,100943.60
2022-08-26T03:49:36.701Z,100945.40
2022-08-26T03:52:05.665Z,100946.80
2022-08-26T03:54:33.972Z,100946.80
2022-08-26T03:57:04.216Z,100947.20
2022-08-26T03:59:33.301Z,100947.60
2022-08-26T04:02:01.536Z,100946.20
2022-08-26T04:04:30.256Z,100948.60
2022-08-26T04:07:00.883Z,100945.60
2022-08-26T04:09:28.935Z,100947.20
2022-08-26T04:11:59.005Z,100949.00
2022-08-26T04:14:28.571Z,100953.00
2022-08-26T04:16:57.197Z,100947.80
2022-08-26T04:19:26.728Z,100946.80
2022-08-26T04:21:55.013Z,100948.20
2022-08-26T04:24:25.757Z,100949.00
2022-08-26T04:26:54.082Z,100948.40
2022-08-26T04:29:26.336Z,100945.60
2022-08-26T04:31:56.341Z,100946.00
2022-08-26T04:34:28.444Z,100947.40
2022-08-26T04:36:58.868Z,100948.80
2022-08-26T04:39:28.220Z,100945.20
2022-08-26T04:41:57.689Z,100946.40
2022-08-26T04:44:29.222Z,100948.00
2022-08-26T04:46:58.862Z,100949.20
2022-08-26T04:49:27.492Z,100950.80
2022-08-26T04:51:55.549Z,100955.40
2022-08-26T04:54:25.091Z,100954.80
2022-08-26T04:56:53.237Z,100959.00
2022-08-26T04:59:21.648Z,100952.20
2022-08-26T05:01:56.479Z,100954.00
2022-08-26T05:04:24.450Z,100949.00
2022-08-26T05:06:56.670Z,100954.40
2022-08-26T05:09:27.388Z,100956.60
2022-08-26T05:11:55.414Z,100960.00
2022-08-26T05:14:23.631Z,100957.00
2022-08-26T05:16:52.710Z,100957.80
2022-08-26T05:19:21.163Z,100952.60
2022-08-26T05:21:50.664Z,100958.00
2022-08-26T05:24:18.563Z,100955.80
2022-08-26T05:26:48.078Z,100956.00
2022-08-26T05:29:17.165Z,100956.60
2022-08-26T05:31:45.165Z,100958.60
2022-08-26T05:34:14.648Z,100953.40
2022-08-26T05:36:43.507Z,100957.60
2022-08-26T05:39:11.407Z,100953.40
2022-08-26T05:41:43.013Z,100955.80
2022-08-26T05:44:15.738Z,100954.40
2022-08-26T05:46:46.201Z,100956.60
2022-08-26T05:49:16.276Z,100959.20
2022-08-26T05:51:47.696Z,100956.80
2022-08-26T05:54:22.357Z,100960.60
2022-08-26T05:56:52.034Z,100959.40
2022-08-26T05:59:24.057Z,100959.00
2022-08-26T06:01:54.959Z,100958.00
2022-08-26T06:04:28.614Z,100959.40
2022-08-26T06:06:59.203Z,100959.60
2022-08-26T06:09:27.433Z,100957.60
2022-08-26T06:11:59.027Z,100956.40
2022-08-26T06:14:27.136Z,100962.20
2022-08-26T06:16:55.400Z,100960.80
2022-08-26T06:19:32.889Z,100958.20
2022-08-26T06:22:23.486Z,100960.00
2022-08-26T06:25:24.838Z,100958.00
2022-08-26T06:27:54.380Z,100961.80
2022-08-26T06:30:22.288Z,100960.20
2022-08-26T06:32:50.501Z,100963.00
2022-08-26T06:35:21.406Z,100957.60
2022-08-26T06:37:49.338Z,100963.20
2022-08-26T06:40:17.495Z,100966.20
2022-08-26T06:42:45.373Z,100962.60
2022-08-26T06:45:14.002Z,100960.80
2022-08-26T06:47:42.000Z,100961.40
2022-08-26T06:50:10.448Z,100963.20
2022-08-26T06:52:42.659Z,100958.00
2022-08-26T06:55:10.981Z,100961.00
2022-08-26T06:57:41.258Z,100963.40
2022-08-26T07:00:11.293Z,100965.40
2022-08-26T07:02:40.485Z,100963.60
2022-08-26T07:05:15.091Z,100960.60
2022-08-26T07:07:48.243Z,100958.40
2022-08-26T07:10:16.139Z,100957.20
2022-08-26T07:12:47.195Z,100953.80
2022-08-26T07:15:16.180Z,100956.20
2022-08-26T07:17:44.387Z,100950.80
2022-08-26T07:20:12.992Z,100951.20
2022-08-26T07:22:40.962Z,100947.00
2022-08-26T07:25:10.723Z,100943.20
2022-08-26T07:27:39.439Z,100939.20
2022-08-26T07:30:08.368Z,100938.00
2022-08-26T07:32:37.634Z,100935.20
2022-08-26T07:35:06.484Z,100936.80
2022-08-26T07:37:35.621Z,100928.60
2022-08-26T07:40:09.119Z,100929.40
2022-08-26T07:42:37.416Z,100929.80
2022-08-26T07:45:06.433Z,100928.20
2022-08-26T07:47:34.868Z,100931.00
2022-08-26T07:50:03.426Z,100933.80
2022-08-26T07:52:31.541Z,100933.00
2022-08-26T07:55:04.074Z,100941.40
2022-08-26T07:57:33.000Z,100941.20
2022-08-26T08:00:10.375Z,100941.20
2022-08-26T08:02:59.168Z,100942.20
2022-08-26T08:05:33.563Z,100939.20
2022-08-26T08:08:26.503Z,100936.80
2022-08-26T08:11:09.986Z,100939.80
2022-08-26T08:13:46.644Z,100940.80
2022-08-26T08:16:20.757Z,100947.00
2022-08-26T08:19:06.786Z,100946.20
2022-08-26T08:21:50.559Z,100942.60
2022-08-26T08:24:25.230Z,100943.20
2022-08-26T08:27:06.365Z,100944.00
2022-08-26T08:29:54.893Z,100937.80
2022-08-26T08:32:33.848Z,100937.40
2022-08-26T08:35:11.703Z,100942.00
2022-08-26T08:37:58.114Z,100941.60
2022-08-26T08:40:48.168Z,100939.20
2022-08-26T08:43:59.719Z,100940.20
2022-08-26T08:46:36.025Z,100942.80
2022-08-26T08:49:19.615Z,100940.40
2022-08-26T08:52:21.121Z,100932.40
2022-08-26T08:55:18.284Z,100934.80
2022-08-26T08:58:08.362Z,100935.00
2022-08-26T09:01:10.973Z,100935.20
2022-08-26T09:04:02.181Z,100936.00
2022-08-26T09:06:34.564Z,100931.40
2022-08-26T09:09:08.668Z,100929.20
2022-08-26T09:11:37.168Z,100927.40
2022-08-26T09:14:05.463Z,100924.20
2022-08-26T09:16:52.151Z,100930.20
2022-08-26T09:19:40.398Z,100926.00
2022-08-26T09:22:09.763Z,100920.20
2022-08-26T09:24:41.761Z,100921.80
2022-08-26T09:27:40.437Z,100917.20
2022-08-26T09:30:15.793Z,100911.20
2022-08-26T09:32:55.993Z,100905.00
2022-08-26T09:35:35.937Z,100904.20
2022-08-26T09:38:33.068Z,100899.80
2022-08-26T09:41:08.917Z,100899.40
2022-08-26T09:43:37.184Z,100896.60
2022-08-26T09:46:28.290Z,100894.00
2022-08-26T09:49:41.413Z,100894.60
2022-08-26T09:52:21.631Z,100891.40
2022-08-26T09:55:24.895Z,100893.80
2022-08-26T09:58:02.252Z,100890.80
2022-08-26T10:00:42.484Z,100886.60
2022-08-26T10:03:26.338Z,100885.00
2022-08-26T10:06:21.627Z,100884.60
2022-08-26T10:08:54.963Z,100885.80
2022-08-26T10:11:37.472Z,100892.00
2022-08-26T10:14:20.230Z,100890.80
2022-08-26T10:17:15.115Z,100892.80
2022-08-26T10:20:23.562Z,100890.60
2022-08-26T10:23:15.977Z,100892.80
2022-08-26T10:25:59.017Z,100899.40
2022-08-26T10:28:49.934Z,100891.40
2022-08-26T10:31:28.985Z,100890.20
2022-08-26T10:34:00.035Z,100881.00
2022-08-26T10:37:14.271Z,100878.80
2022-08-26T10:39:46.061Z,100877.20
2022-08-26T10:42:28.848Z,100872.20
2022-08-26T10:45:15.904Z,100876.00
2022-08-26T10:47:57.555Z,100878.20
2022-08-26T10:50:35.512Z,100870.40
2022-08-26T10:53:18.065Z,100866.00
2022-08-26T10:56:02.799Z,100865.60
2022-08-26T10:59:31.965Z,100860.60
2022-08-26T11:02:33.386Z,100860.80
2022-08-26T11:05:07.069Z,100861.40
2022-08-26T11:07:52.800Z,100864.00
2022-08-26T11:10:25.493Z,100860.40
2022-08-26T11:13:09.272Z,100857.40
2022-08-26T11:15:37.075Z,100859.00
2022-08-26T11:18:12.263Z,100855.40
2022-08-26T11:20:45.356Z,100853.40
2022-08-26T11:23:14.099Z,100848.40
2022-08-26T11:25:57.215Z,100847.60
2022-08-26T11:28:49.695Z,100844.00
2022-08-26T11:31:26.757Z,100840.60
2022-08-26T11:34:02.647Z,100844.40
2022-08-26T11:36:49.307Z,100847.20
2022-08-26T11:39:24.572Z,100846.80
2022-08-26T11:42:00.230Z,100851.60
2022-08-26T11:44:40.693Z,100852.80
2022-08-26T11:47:12.195Z,100852.00
2022-08-26T11:49:41.886Z,100851.20
2022-08-26T11:52:22.460Z,100851.00
2022-08-26T11:55:14.542Z,100848.40
2022-08-26T11:57:51.017Z,100837.60
2022-08-26T12:00:33.850Z,100830.60
2022-08-26T12:03:16.507Z,100826.80
2022-08-26T12:05:52.548Z,100830.20
2022-08-26T12:08:31.385Z,100828.80
2022-08-26T12:11:08.777Z,100824.00
2022-08-26T12:13:40.643Z,100826.60
2022-08-26T12:16:10.664Z,100825.60
2022-08-26T12:18:41.616Z,100817.40
2022-08-26T12:21:27.165Z,100816.00
2022-08-26T12:24:01.544Z,100816.20
2022-08-26T12:26:34.873Z,100816.20
2022-08-26T12:29:28.354Z,100811.80
2022-08-26T12:32:17.947Z,100812.80
2022-08-26T12:34:49.170Z,100813.20
2022-08-26T12:37:20.452Z,100808.00
2022-08-26T12:39:49.306Z,100803.20
2022-08-26T12:42:17.104Z,100802.40
2022-08-26T12:44:57.130Z,100804.40
2022-08-26T12:47:43.112Z,100804.00
2022-08-26T12:50:21.410Z,100801.40
2022-08-26T12:53:22.420Z,100798.20
2022-08-26T12:56:02.635Z,100794.60
2022-08-26T12:58:35.419Z,100790.80
2022-08-26T13:01:06.977Z,100794.00
2022-08-26T13:03:34.974Z,100796.80
2022-08-26T13:06:17.762Z,100792.20
2022-08-26T13:08:55.825Z,100791.80
2022-08-26T13:11:54.740Z,100793.00
2022-08-26T13:14:24.986Z,100786.00
2022-08-26T13:16:53.818Z,100785.80
2022-08-26T13:19:29.880Z,100780.00
2022-08-26T13:22:00.796Z,100779.00
2022-08-26T13:24:39.827Z,100779.60
2022-08-26T13:27:12.207Z,100777.60
2022-08-26T13:29:41.642Z,100777.60
2022-08-26T13:32:11.019Z,100775.20
2022-08-26T13:34:39.442Z,100775.20
2022-08-26T13:37:07.433Z,100773.80
2022-08-26T13:39:35.263Z,100771.60
2022-08-26T13:42:03.279Z,100770.60
2022-08-26T13:44:31.310Z,100779.20
2022-08-26T13:46:59.224Z,100767.00
2022-08-26T13:49:27.509Z,100769.40
2022-08-26T13:51:58.541Z,100767.60
2022-08-26T13:54:26.674Z,100765.80
2022-08-26T13:56:54.699Z,100768.00
2022-08-26T13:59:22.495Z,100765.00
2022-08-26T14:01:50.719Z,100763.80
2022-08-26T14:04:26.932Z,100761.80
2022-08-26T14:06:55.407Z,100762.20
2022-08-26T14:09:23.396Z,100756.00
2022-08-26T14:11:54.367Z,100752.20
2022-08-26T14:14:57.243Z,100746.40
2022-08-26T14:17:28.499Z,100740.40
2022-08-26T14:23:27.796Z,100733.80
2022-08-26T14:26:08.517Z,100726.20
2022-08-26T14:28:40.146Z,100727.80
2022-08-26T14:31:09.150Z,100724.80
2022-08-26T14:33:38.273Z,100723.00
2022-08-26T14:36:26.714Z,100722.60
2022-08-26T14:38:58.484Z,100718.60
2022-08-26T14:41:33.751Z,100723.20
2022-08-26T14:44:21.793Z,100719.40
2022-08-26T14:47:01.064Z,100715.00
2022-08-26T14:49:31.598Z,100710.00
2022-08-26T14:52:03.382Z,100715.00
2022-08-26T14:54:34.791Z,100721.40
2022-08-26T14:57:19.852Z,100714.80
2022-08-26T14:59:56.096Z,100715.60
2022-08-26T15:02:33.405Z,100713.60
2022-08-26T15:05:06.793Z,100716.80
2022-08-26T15:07:39.032Z,100713.80
2022-08-26T15:10:14.657Z,100712.20
2022-08-26T15:12:43.386Z,100710.80
2022-08-26T15:15:17.625Z,100715.20
2022-08-26T15:17:45.900Z,100712.00
2022-08-26T15:20:14.331Z,100706.40
2022-08-26T15:22:43.370Z,100703.00
2022-08-26T15:25:11.667Z,100702.00
2022-08-26T15:27:40.606Z,100701.60
2022-08-26T15:30:11.793Z,100697.60
2022-08-26T15:32:39.681Z,100698.40
2022-08-26T15:35:09.216Z,100699.80
2022-08-26T15:37:39.123Z,100697.00
2022-08-26T15:40:10.040Z,100698.40
2022-08-26T15:42:38.106Z,100698.20
2022-08-26T15:45:06.506Z,100697.20
2022-08-26T15:47:55.287Z,100692.40
2022-08-26T15:50:22.930Z,100693.40
2022-08-26T15:52:51.556Z,100692.20
2022-08-26T15:55:19.510Z,100691.60
2022-08-26T15:57:51.465Z,100690.80
2022-08-26T16:00:20.869Z,100691.00
2022-08-26T16:02:48.734Z,100682.80
2022-08-26T16:05:17.533Z,100684.80
2022-08-26T16:07:45.424Z,100686.00
2022-08-26T16:10:21.067Z,100685.60
2022-08-26T16:12:49.548Z,100682.00
2022-08-26T16:15:17.432Z,100684.40
2022-08-26T16:17:45.287Z,100684.00
2022-08-26T16:20:13.426Z,100686.00
2022-08-26T16:22:41.357Z,100683.20
2022-08-26T16:25:09.634Z,100687.60
2022-08-26T16:27:37.755Z,100686.00
2022-08-26T16:30:10.381Z,100687.20
2022-08-26T16:36:30.255Z,100682.80
2022-08-26T16:38:58.299Z,100684.00
2022-08-26T16:41:32.214Z,100678.80
2022-08-26T16:44:08.365Z,100681.20
2022-08-26T16:46:36.581Z,100684.00
2022-08-26T16:49:14.032Z,100685.00
2022-08-26T16:51:45.113Z,100689.00
2022-08-26T16:54:15.515Z,100690.60
2022-08-26T16:56:47.643Z,100698.00
2022-08-26T16:59:15.804Z,100698.60
2022-08-26T17:01:44.071Z,100701.20
2022-08-26T17:04:11.832Z,100708.00
2022-08-26T17:06:41.559Z,100707.60
2022-08-26T17:09:09.611Z,100708.00
2022-08-26T17:11:40.656Z,100710.40
2022-08-26T17:14:09.002Z,100712.20
2022-08-26T17:16:39.806Z,100714.20
2022-08-26T17:19:08.350Z,100714.40
2022-08-26T17:21:37.070Z,100716.60
2022-08-26T17:24:07.056Z,100721.60
2022-08-26T17:26:37.378Z,100722.60
2022-08-26T17:29:07.774Z,100725.20
2022-08-26T17:31:35.666Z,100730.40
2022-08-26T17:34:04.741Z,100733.20
2022-08-26T17:36:32.945Z,100734.20
2022-08-26T17:39:00.942Z,100732.60
2022-08-26T17:41:29.090Z,100735.40
2022-08-26T17:43:57.335Z,100737.40
2022-08-26T17:46:39.762Z,100735.60
2022-08-26T17:49:12.632Z,100739.80
2022-08-26T17:51:43.499Z,100744.60
2022-08-26T17:54:11.406Z,100742.40
2022-08-26T17:56:39.256Z,100745.80
2022-08-26T17:59:07.208Z,100741.00
2022-08-26T18:01:35.419Z,100746.60
2022-08-26T18:04:06.571Z,100745.80
2022-08-26T18:06:34.790Z,100745.80
2022-08-26T18:09:04.384Z,100748.60
2022-08-26T18:11:34.210Z,100744.60
2022-08-26T18:14:02.363Z,100749.00
2022-08-26T18:16:35.511Z,100747.20
2022-08-26T18:19:08.758Z,100748.40
2022-08-26T18:21:36.812Z,100743.80
2022-08-26T18:24:14.032Z,100745.80
2022-08-26T18:26:49.744Z,100747.20
2022-08-26T18:29:23.499Z,100752.20
2022-08-26T18:31:52.569Z,100754.40
2022-08-26T18:34:23.586Z,100757.80
2022-08-26T18:37:01.753Z,100754.80
2022-08-26T18:39:40.017Z,100755.00
2022-08-26T18:42:11.375Z,100757.40
2022-08-26T18:44:39.344Z,100756.60
2022-08-26T18:47:10.125Z,100758.40
2022-08-26T18:49:38.152Z,100755.20
2022-08-26T18:52:06.922Z,100751.60
2022-08-26T18:54:36.008Z,100747.20
2022-08-26T18:57:04.960Z,100741.80
2022-08-26T18:59:35.138Z,100744.20
2022-08-26T19:02:03.383Z,100749.60
2022-08-26T19:04:31.588Z,100755.20
2022-08-26T19:06:59.763Z,100758.40
2022-08-26T19:09:29.531Z,100751.40
2022-08-26T19:11:59.235Z,100751.80
2022-08-26T19:14:29.379Z,100757.80
2022-08-26T19:16:57.593Z,100754.60
2022-08-26T19:19:25.648Z,100758.20
2022-08-26T19:21:54.735Z,100756.00
2022-08-26T19:24:27.327Z,100760.00
2022-08-26T19:27:02.244Z,100759.80
2022-08-26T19:29:41.171Z,100754.20
2022-08-26T19:32:09.054Z,100755.40
2022-08-26T19:34:39.501Z,100757.00
2022-08-26T19:37:08.711Z,100759.80
2022-08-26T19:39:39.481Z,100761.00
2022-08-26T19:42:07.819Z,100754.80
2022-08-26T19:44:54.637Z,100758.80
2022-08-26T19:47:22.745Z,100759.00
2022-08-26T19:49:57.186Z,100759.40
2022-08-26T19:52:30.029Z,100757.20
2022-08-26T19:55:08.660Z,100756.80
2022-08-26T19:57:41.535Z,100756.80
2022-08-26T20:00:16.149Z,100756.00
2022-08-26T20:02:44.881Z,100757.80
2022-08-26T20:05:16.391Z,100758.20
2022-08-26T20:07:44.952Z,100757.80
2022-08-26T20:10:15.531Z,100756.20
2022-08-26T20:12:53.901Z,100756.80
2022-08-26T20:15:28.522Z,100747.40
2022-08-26T20:17:57.973Z,100749.20
2022-08-26T20:20:58.610Z,100741.60
2022-08-26T20:23:29.600Z,100737.40
2022-08-26T20:28:48.473Z,100740.00
2022-08-26T20:31:20.233Z,100744.20
2022-08-26T20:33:48.935Z,100739.60
2022-08-26T20:36:18.497Z,100742.20
2022-08-26T20:38:47.672Z,100742.20
2022-08-26T20:41:16.753Z,100733.40
2022-08-26T20:44:06.286Z,100732.00
2022-08-26T20:46:35.329Z,100732.60
2022-08-26T20:49:05.999Z,100730.60
2022-08-26T20:51:38.098Z,100728.00
2022-08-26T20:54:07.956Z,100720.80
2022-08-26T20:56:37.525Z,100724.60
2022-08-26T20:59:08.036Z,100727.60
2022-08-26T21:01:41.983Z,100731.20
2022-08-26T21:04:17.419Z,100730.00
2022-08-26T21:06:52.435Z,100722.00
2022-08-26T21:09:25.868Z,100723.80
2022-08-26T21:11:55.283Z,100722.20
2022-08-26T21:14:25.990Z,100724.40
2022-08-26T21:16:54.745Z,100725.80
2022-08-26T21:19:22.875Z,100720.80
2022-08-26T21:21:53.682Z,100726.60
2022-08-26T21:24:22.294Z,100721.60
2022-08-26T21:26:50.612Z,100720.00
2022-08-26T21:29:18.925Z,100721.00
2022-08-26T21:31:47.169Z,100720.00
2022-08-26T21:34:18.604Z,100718.80
2022-08-26T21:36:48.473Z,100715.60
2022-08-26T21:39:17.529Z,100716.60
2022-08-26T21:41:47.737Z,100717.40
2022-08-26T21:44:18.168Z,100716.20
2022-08-26T21:46:47.081Z,100718.20
2022-08-26T21:49:16.216Z,100721.40
2022-08-26T21:51:48.580Z,100718.80
2022-08-26T21:54:18.166Z,100715.00
2022-08-26T21:56:47.326Z,100716.80
2022-08-26T21:59:18.938Z,100722.40
2022-08-26T22:01:47.424Z,100724.00
2022-08-26T22:04:16.505Z,100728.20
2022-08-26T22:06:57.792Z,100729.20
2022-08-26T22:09:28.955Z,100731.40
2022-08-26T22:11:57.786Z,100726.80
2022-08-26T22:14:30.915Z,100728.80
2022-08-26T22:17:00.078Z,100726.40
2022-08-26T22:19:31.881Z,100722.20
2022-08-26T22:22:03.768Z,100719.00
2022-08-26T22:24:31.723Z,100722.00
2022-08-26T22:26:59.545Z,100720.40
2022-08-26T22:29:27.341Z,100719.40
2022-08-26T22:31:55.117Z,100715.60
2022-08-26T22:34:23.460Z,100720.80
2022-08-26T22:36:51.712Z,100717.20
2022-08-26T22:39:28.457Z,100723.20
2022-08-26T22:41:58.131Z,100727.20
2022-08-26T22:44:26.706Z,100721.20
2022-08-26T22:46:54.520Z,100725.80
2022-08-26T22:49:23.818Z,100727.40
2022-08-26T22:51:51.839Z,100723.00
2022-08-26T22:54:19.762Z,100718.00
2022-08-26T22:56:50.812Z,100714.00
2022-08-26T22:59:19.121Z,100711.00
2022-08-26T23:01:47.559Z,100711.80
2022-08-26T23:04:15.682Z,100707.00
2022-08-26T23:06:47.578Z,100704.00
2022-08-26T23:09:18.834Z,100707.80
2022-08-26T23:11:48.848Z,100705.60
2022-08-26T23:14:18.883Z,100706.00
2022-08-26T23:16:47.891Z,100706.80
2022-08-26T23:19:19.908Z,100709.40
2022-08-26T23:21:49.642Z,100711.20
2022-08-26T23:24:18.475Z,100711.00
2022-08-26T23:26:47.125Z,100700.00
2022-08-26T23:29:16.473Z,100703.40
2022-08-26T23:31:44.901Z,100701.20
2022-08-26T23:34:32.358Z,100704.40
2022-08-26T23:37:02.122Z,100703.00
2022-08-26T23:39:35.494Z,100700.40
2022-08-26T23:42:06.123Z,100700.40
2022-08-26T23:44:35.114Z,100701.20
2022-08-26T23:47:03.441Z,100703.80
2022-08-26T23:49:32.150Z,100698.40
2022-08-26T23:52:19.338Z,100694.40
2022-08-26T23:54:48.790Z,100692.80
2022-08-26T23:57:19.403Z,100688.80
2022-08-26T23:59:48.781Z,100686.40
